Archival Weather

Norman Y Mineta San Jose Intl

San Jose, California (KSJC)

Report from: Wednesday, April 3, 2024 9:53 PM PDT
Current time: Tuesday, May 21, 2024 10:12 AM PDT

Current weather – Weather history – Daily summaries
Weather forecast

Temperature12.2°C (54.0°F)
Dew point5.0°C (41.0°F)
Winds 8 kts (4.1 m/s, 9.2 mph) Northwest (310°)
Visibility10 mi. (16.1 km)
Clouds Ceiling: Broken clouds 2,900 ft. (884 m)
Altimeter30.04 in.Hg (1017 mB)
Relative humidity61 %
Density altitude-335 ft. (-102 m)
Sea-level pressure101.7 kPa (1017 mB, 30.04 in.Hg)
Remarks Automated weather observing station with precipitation discriminator
Flight conditions Marginal Visual Meteorological Conditions
Raw dataKSJC 040453Z 31008KT 10SM BKN029 12/05 A3004 RMK AO2 SLP171 T01220050
An error has occurred. This application may no longer respond until reloaded. Reload 🗙